Petersburg, Nebraska
Current Conditions -  °F | °C
As of 1:35 PM on Sunday 23 Nov 2014 (Local Time) from KBVN Reporting Station
Scattered Clouds Scattered Clouds  
Wind Chill: 33°   Ceiling: Unl
Heat Index: 43°   Visibility: 10mi
Dew Point: 31°   Wind: 29mph
Humidity: 64%   Direction: 330°NNW
Pressure: 29.55"   Gusts: 36mph
Location:  41.85°N, 98.08°W
Report Text: KBVN 231935Z AUTO 33025G31KT 10SM SCT120 06/00 A2955 RMK AO2 T00611003
Loading
Personal Weather Stations






























Interactive Weather Map New forecast layout! Learn more

10-Day Weather Forecast

Advertisements
Track Severe Weather on mobile